Accueil
METAR-TAF:

METAR-TAF

Aéroports :

Cortez, Colorado, États-Unis

latitude: 37-18-23N, longitude: 108-37-32W, altitude: 1803 m

Observation

Le bulletin a été fait il y a 40 minutes, à 10:53 UTC
Vent calme
Température 2°C
Humidité 55%
Pression 1012 hPa
Visibilité: 16.1 km
Quelques nuages à une hauteur de 6500 ft
Ciel couvert à une hauteur de 9000 ft

METAR: KCEZ 041053Z AUTO 00000KT 10SM FEW065 OVC090 02/M06 A2989 RMK AO2 SLP088 T00171056 $

Heure: 05:33 (11:33 UTC)


TAF: absent

Observations et prévisions météorologiques de plus de 4000 aéroports (messages METAR et TAF).

Les stations disponibles sont représentées par des disques jaunes et rouges sur la carte.

Passer la souris dessus pour voir le nom de la station.

Cliquer dessus pour voir les observations et prévisions météorologiques.

Pour changer de carte: cliquez sur les boutons verts avec une croix noire pour zoomer, sur le bouton vert avec un tiret pour effectuer un zoom arrière, ou sur les flèches vertes pour les cartes adjacentes.


METAR-TAF: